Time;durP1;ratioP1;P1;durP2;ratioP2;P2;SDS_P1;SDS_P2;PMS_P1;PMS_P2;Temp;Humidity;BMP_temperature;BMP_pressure;BME280_temperature;BME280_humidity;BME280_pressure;Samples;Min_cycle;Max_cycle;Signal;HPM_P1;HPM_P2
2023/06/14 04:34:29;;;;;;;5.90;4.80;;;11.80;75.00;;;;;;6249951;22;20259;-91
2023/06/14 04:36:58;;;;;;;5.25;4.10;;;11.90;75.10;;;;;;5013853;28;20260;-90
2023/06/14 04:39:25;;;;;;;5.90;4.63;;;12.00;74.80;;;;;;5017545;28;20227;-90
2023/06/14 04:42:32;;;;;;;6.25;4.47;;;12.10;75.30;;;;;;5000339;28;20667;-91
2023/06/14 04:45:36;;;;;;;7.43;4.55;;;12.00;75.10;;;;;;5020546;28;20230;-89
2023/06/14 04:48:04;;;;;;;9.13;4.45;;;12.00;73.80;;;;;;5018153;28;20253;-85
2023/06/14 04:50:32;;;;;;;10.10;4.72;;;12.00;72.60;;;;;;5018101;28;20187;-86
2023/06/14 04:53:00;;;;;;;6.28;4.80;;;12.00;75.20;;;;;;5017251;28;20211;-87
2023/06/14 04:55:27;;;;;;;5.88;4.63;;;11.90;72.60;;;;;;5017242;28;20636;-90
2023/06/14 04:57:56;;;;;;;8.30;4.53;;;12.00;69.70;;;;;;5017638;28;20536;-87
2023/06/14 05:00:24;;;;;;;5.72;4.70;;;12.20;68.30;;;;;;4976743;28;20211;-88
2023/06/14 05:03:06;;;;;;;8.82;4.28;;;12.20;69.40;;;;;;4994283;28;20243;-89
2023/06/14 05:16:48;;;;;;;4.95;4.20;;;12.80;63.90;;;;;;4997100;28;20214;-90
2023/06/14 05:57:33;;;;;;;8.48;3.60;;;17.20;23.80;;;;;;5035382;28;20198;-88
2023/06/14 06:31:43;;;;;;;7.20;3.80;;;15.90;28.60;;;;;;5037963;28;20186;-86
2023/06/14 06:48:47;;;;;;;5.82;3.97;;;16.40;29.00;;;;;;5037937;28;20217;-88
2023/06/14 07:58:08;;;;;;;3.95;3.10;;;19.60;16.80;;;;;;5042821;28;20292;-91
2023/06/14 08:03:31;;;;;;;4.85;3.10;;;19.60;16.90;;;;;;5027475;28;20210;-93
2023/06/14 08:18:11;;;;;;;5.50;2.85;;;21.10;13.90;;;;;;4999750;28;20224;-88
2023/06/14 08:20:40;;;;;;;4.00;3.38;;;22.70;11.70;;;;;;5017144;28;20809;-83
2023/06/14 08:23:07;;;;;;;10.48;7.22;;;24.70;8.20;;;;;;5021938;28;20207;-89
2023/06/14 08:25:40;;;;;;;3.70;3.35;;;26.60;5.30;;;;;;5010454;28;20200;-87
2023/06/14 08:28:07;;;;;;;5.47;2.97;;;27.70;3.10;;;;;;5015588;28;20277;-88
2023/06/14 08:30:34;;;;;;;6.35;3.40;;;28.40;2.90;;;;;;5000326;28;20604;-89
2023/06/14 08:33:01;;;;;;;7.55;3.55;;;29.00;1.40;;;;;;5009391;28;20199;-88
2023/06/14 08:35:28;;;;;;;4.07;3.42;;;29.80;1.00;;;;;;5007569;28;20199;-90
2023/06/14 08:37:55;;;;;;;8.35;3.30;;;29.90;1.00;;;;;;5014206;28;20198;-90
2023/06/14 08:48:00;;;;;;;4.63;3.67;;;29.70;1.00;;;;;;4909588;29;20209;-90
2023/06/14 08:53:59;;;;;;;5.57;3.65;;;32.30;1.00;;;;;;4896277;29;20299;-90
2023/06/14 08:59:10;;;;;;;5.88;3.88;;;31.30;1.00;;;;;;4968438;28;20727;-90
2023/06/14 09:01:38;;;;;;;3.80;3.50;;;30.80;1.00;;;;;;5007110;28;20226;-87
2023/06/14 09:04:08;;;;;;;7.00;3.90;;;30.20;1.00;;;;;;5015449;28;20203;-88
2023/06/14 09:06:36;;;;;;;3.97;3.50;;;30.00;1.00;;;;;;5013473;28;20203;-86
2023/06/14 09:09:04;;;;;;;3.90;3.60;;;29.60;1.00;;;;;;5004268;28;20208;-88
2023/06/14 09:18:03;;;;;;;4.13;3.75;;;30.00;1.00;;;;;;5097325;22;20220;-89
2023/06/14 09:37:28;;;;;;;6.70;3.83;;;28.60;1.00;;;;;;4969995;28;20211;-92
2023/06/14 09:39:55;;;;;;;5.68;3.55;;;27.50;4.50;;;;;;5022191;28;20203;-91
2023/06/14 09:42:58;;;;;;;4.40;4.00;;;27.80;1.30;;;;;;5004278;28;20228;-90
2023/06/14 09:45:28;;;;;;;4.15;3.75;;;28.00;2.20;;;;;;4998665;28;20207;-90
2023/06/14 09:48:05;;;;;;;5.35;4.18;;;28.70;1.00;;;;;;5012243;28;20190;-91
2023/06/14 09:57:33;;;;;;;8.05;3.88;;;31.20;1.00;;;;;;5043250;28;20182;-90
2023/06/14 10:01:06;;;;;;;6.00;4.05;;;30.40;1.00;;;;;;5034261;28;20660;-91
2023/06/14 10:03:36;;;;;;;5.75;3.80;;;29.90;1.00;;;;;;5018813;28;20217;-88
2023/06/14 10:06:12;;;;;;;4.35;3.60;;;29.40;1.40;;;;;;5017911;28;20206;-92
2023/06/14 10:09:39;;;;;;;6.22;4.10;;;29.00;1.00;;;;;;5020029;28;20209;-90
2023/06/14 10:12:29;;;;;;;7.82;4.43;;;29.80;1.00;;;;;;5016034;28;20222;-90
2023/06/14 10:14:57;;;;;;;4.85;4.10;;;31.20;1.00;;;;;;5033986;28;20538;-90
2023/06/14 10:23:17;;;;;;;4.95;4.28;;;30.00;1.00;;;;;;4970650;28;20239;-90
2023/06/14 10:29:15;;;;;;;5.82;4.50;;;28.60;1.50;;;;;;4979589;28;20222;-90
2023/06/14 10:31:43;;;;;;;6.32;4.15;;;28.90;1.00;;;;;;4986579;28;20258;-90
2023/06/14 10:34:11;;;;;;;6.53;4.40;;;28.10;1.00;;;;;;4996243;28;20279;-88
2023/06/14 10:39:24;;;;;;;5.60;3.80;;;26.70;4.30;;;;;;4985572;28;20200;-85
2023/06/14 10:41:56;;;;;;;5.20;3.83;;;26.90;1.60;;;;;;4984421;28;20215;-87
2023/06/14 10:44:42;;;;;;;4.57;4.07;;;26.00;3.10;;;;;;4992443;28;20210;-86
2023/06/14 10:47:12;;;;;;;5.70;3.88;;;25.30;4.70;;;;;;4997193;28;20555;-85
2023/06/14 10:49:45;;;;;;;5.07;3.75;;;25.00;6.10;;;;;;4993852;28;20259;-85
2023/06/14 10:55:14;;;;;;;5.40;3.80;;;24.90;9.10;;;;;;4979616;28;20192;-85
2023/06/14 11:01:38;;;;;;;6.25;4.13;;;27.10;3.70;;;;;;4987609;28;20172;-88
2023/06/14 11:04:45;;;;;;;5.40;4.07;;;27.30;4.20;;;;;;4999926;28;20615;-87
2023/06/14 11:08:02;;;;;;;8.95;4.05;;;27.40;3.50;;;;;;5019990;28;20229;-87
2023/06/14 11:10:37;;;;;;;6.10;3.90;;;26.90;6.20;;;;;;5011980;28;20200;-86
2023/06/14 11:13:05;;;;;;;6.55;3.40;;;26.50;6.40;;;;;;5003837;28;20257;-87
2023/06/14 11:18:16;;;;;;;10.60;4.07;;;26.00;8.40;;;;;;5013065;28;20229;-88
2023/06/14 11:20:47;;;;;;;5.68;3.80;;;25.70;7.00;;;;;;5012741;28;20546;-89
2023/06/14 11:23:16;;;;;;;8.88;3.83;;;25.80;5.60;;;;;;5022982;28;20269;-89
2023/06/14 11:25:43;;;;;;;5.85;3.65;;;25.70;6.80;;;;;;5014738;28;20207;-87
2023/06/14 11:28:10;;;;;;;4.78;3.60;;;25.30;7.40;;;;;;5007160;28;20195;-85
2023/06/14 11:30:37;;;;;;;10.23;3.75;;;25.50;5.20;;;;;;5005765;28;20698;-88
2023/06/14 11:33:04;;;;;;;4.65;3.50;;;25.50;6.60;;;;;;5012901;28;20285;-87
2023/06/14 11:35:33;;;;;;;5.82;3.75;;;25.40;6.40;;;;;;5012489;28;20203;-91
2023/06/14 11:38:02;;;;;;;8.30;3.60;;;25.20;7.30;;;;;;5016759;28;20199;-90
2023/06/14 11:40:35;;;;;;;4.80;3.60;;;25.20;6.10;;;;;;5018307;28;20200;-90
2023/06/14 11:43:03;;;;;;;8.23;4.35;;;24.90;5.90;;;;;;5009082;28;21014;-90
2023/06/14 11:45:31;;;;;;;5.15;3.60;;;24.80;8.20;;;;;;5037654;28;20226;-86
2023/06/14 11:47:59;;;;;;;5.22;3.50;;;24.90;5.70;;;;;;5013907;28;20198;-86
2023/06/14 11:50:26;;;;;;;6.55;3.30;;;24.80;5.40;;;;;;5022645;28;20226;-87
2023/06/14 11:52:54;;;;;;;8.60;3.90;;;24.30;6.00;;;;;;5001197;28;20200;-89
2023/06/14 11:55:22;;;;;;;6.75;3.67;;;24.10;6.30;;;;;;5011761;28;20321;-86
2023/06/14 11:57:51;;;;;;;7.45;3.60;;;24.30;9.10;;;;;;5014871;28;20671;-88
2023/06/14 12:00:20;;;;;;;12.55;3.75;;;24.50;6.00;;;;;;5023227;28;20202;-91
2023/06/14 12:05:35;;;;;;;6.03;3.70;;;24.70;5.70;;;;;;5035188;28;20200;-94
2023/06/14 12:10:45;;;;;;;4.18;3.55;;;25.10;6.30;;;;;;5019298;28;20301;-93
2023/06/14 12:13:15;;;;;;;6.45;3.50;;;25.20;5.30;;;;;;5036986;28;20207;-92
2023/06/14 12:15:43;;;;;;;4.95;3.60;;;25.50;4.80;;;;;;5023963;28;20767;-91
2023/06/14 12:18:11;;;;;;;4.07;3.40;;;25.80;4.90;;;;;;5027211;28;20229;-92
2023/06/14 12:21:06;;;;;;;3.38;3.08;;;25.40;4.80;;;;;;5031088;28;20195;-91
2023/06/14 12:23:46;;;;;;;8.82;3.38;;;24.70;5.80;;;;;;5037988;28;20223;-91
2023/06/14 12:26:18;;;;;;;7.18;3.47;;;24.20;6.50;;;;;;5020864;28;20241;-91
2023/06/14 12:28:48;;;;;;;3.53;3.20;;;24.10;6.80;;;;;;5015025;28;20554;-91
2023/06/14 12:31:16;;;;;;;4.90;3.42;;;24.40;6.50;;;;;;5000267;28;20202;-90
2023/06/14 12:33:45;;;;;;;3.50;3.20;;;24.60;7.20;;;;;;5030529;28;20566;-88
2023/06/14 12:36:12;;;;;;;6.20;3.30;;;24.70;7.30;;;;;;5040388;28;20636;-90
2023/06/14 12:38:39;;;;;;;6.22;3.90;;;24.80;6.70;;;;;;5017658;28;20214;-93
2023/06/14 12:41:07;;;;;;;6.13;3.25;;;24.80;6.40;;;;;;5019899;28;20205;-90
2023/06/14 12:43:34;;;;;;;7.22;3.78;;;24.90;6.40;;;;;;5029021;28;20273;-91
2023/06/14 12:46:03;;;;;;;5.47;3.40;;;24.90;5.80;;;;;;5017950;28;20198;-89
2023/06/14 12:48:31;;;;;;;4.53;3.42;;;25.00;4.60;;;;;;5035924;28;20215;-89
2023/06/14 12:50:57;;;;;;;4.60;3.47;;;25.00;4.60;;;;;;5025617;28;20202;-89
2023/06/14 12:53:25;;;;;;;6.80;3.80;;;25.10;4.60;;;;;;5020345;28;20195;-89
2023/06/14 12:55:52;;;;;;;4.80;3.50;;;25.10;6.00;;;;;;5030173;28;20221;-91
2023/06/14 12:58:19;;;;;;;5.43;3.40;;;25.10;5.10;;;;;;5025508;28;20225;-90
2023/06/14 13:00:46;;;;;;;7.55;3.47;;;24.60;6.20;;;;;;5015142;28;20222;-88
2023/06/14 13:03:15;;;;;;;6.88;3.30;;;23.90;7.20;;;;;;5039570;28;20218;-89
2023/06/14 13:05:42;;;;;;;5.55;3.60;;;23.80;7.30;;;;;;5016045;28;20204;-90
2023/06/14 13:08:09;;;;;;;4.13;3.42;;;23.70;6.20;;;;;;5014538;28;20202;-90
2023/06/14 13:10:37;;;;;;;8.80;3.47;;;23.80;7.20;;;;;;5025875;28;20206;-90
2023/06/14 13:13:04;;;;;;;9.20;3.60;;;23.60;7.10;;;;;;5036875;28;20198;-89
2023/06/14 13:15:31;;;;;;;5.65;3.40;;;23.70;7.20;;;;;;5041671;28;20730;-88
2023/06/14 13:17:58;;;;;;;4.43;3.47;;;23.90;6.20;;;;;;5054652;23;20690;-88
2023/06/14 13:20:40;;;;;;;6.57;3.33;;;24.10;6.30;;;;;;5036103;28;20660;-87
2023/06/14 13:23:08;;;;;;;3.75;3.45;;;24.20;5.20;;;;;;5029742;28;20230;-88
2023/06/14 13:25:35;;;;;;;4.80;3.53;;;24.30;6.50;;;;;;5023058;28;20202;-87
2023/06/14 13:28:02;;;;;;;8.00;3.47;;;24.50;6.00;;;;;;5030360;28;20191;-88
2023/06/14 13:30:29;;;;;;;7.40;3.65;;;24.70;4.70;;;;;;5026388;28;20281;-89
2023/06/14 13:32:57;;;;;;;6.72;3.35;;;24.60;5.60;;;;;;5032963;28;20194;-88
2023/06/14 13:35:24;;;;;;;5.32;3.42;;;24.50;5.40;;;;;;5033206;28;20410;-90
2023/06/14 13:37:53;;;;;;;4.68;3.58;;;24.10;6.20;;;;;;5045404;28;20656;-89
2023/06/14 13:40:21;;;;;;;3.92;3.35;;;23.50;6.30;;;;;;5030612;28;20198;-89
2023/06/14 13:42:48;;;;;;;5.95;3.47;;;23.00;7.40;;;;;;5036347;28;20226;-86
2023/06/14 13:45:21;;;;;;;4.60;3.33;;;22.60;7.30;;;;;;5033447;28;20213;-85
2023/06/14 13:47:49;;;;;;;5.07;3.47;;;22.40;6.40;;;;;;5033267;28;20203;-88
2023/06/14 13:50:18;;;;;;;10.65;3.63;;;22.50;7.80;;;;;;5017061;28;20206;-86
2023/06/14 13:52:49;;;;;;;6.38;3.30;;;22.90;6.30;;;;;;5047175;28;20243;-88
2023/06/14 13:55:17;;;;;;;4.50;3.13;;;23.30;7.70;;;;;;5032645;28;20204;-89
2023/06/14 13:57:44;;;;;;;5.40;3.42;;;23.70;5.50;;;;;;5036068;28;20207;-88
2023/06/14 14:00:12;;;;;;;5.20;3.33;;;23.80;6.10;;;;;;5036626;28;20202;-88
2023/06/14 14:02:41;;;;;;;6.28;3.40;;;24.00;5.90;;;;;;5031277;28;20214;-89
2023/06/14 14:05:09;;;;;;;3.78;3.42;;;24.20;5.00;;;;;;5026849;28;20202;-87
2023/06/14 14:07:38;;;;;;;5.90;3.40;;;24.30;5.40;;;;;;5025439;28;20199;-88
2023/06/14 14:10:05;;;;;;;3.55;3.20;;;24.20;4.40;;;;;;5033140;28;20647;-89
2023/06/14 14:12:38;;;;;;;4.05;3.30;;;24.30;4.40;;;;;;5031414;28;20207;-87
2023/06/14 14:15:07;;;;;;;4.32;3.55;;;24.20;4.10;;;;;;5030237;28;20273;-85
2023/06/14 14:17:34;;;;;;;3.78;3.38;;;24.20;4.10;;;;;;5033334;28;20248;-90
2023/06/14 14:20:01;;;;;;;5.90;3.20;;;24.30;4.10;;;;;;5008469;28;20200;-90
2023/06/14 14:25:58;;;;;;;3.88;3.28;;;24.20;5.90;;;;;;5020062;28;20187;-88
2023/06/14 14:28:26;;;;;;;5.70;3.38;;;24.20;4.60;;;;;;5017633;28;20199;-87
2023/06/14 14:30:53;;;;;;;6.97;3.38;;;24.10;4.70;;;;;;5019816;28;20213;-88
2023/06/14 14:33:22;;;;;;;5.60;3.58;;;23.70;5.40;;;;;;5002570;28;21984;-90
2023/06/14 14:38:31;;;;;;;4.38;3.20;;;23.10;6.70;;;;;;5005935;28;20203;-90
2023/06/14 14:44:04;;;;;;;4.13;3.50;;;22.90;6.40;;;;;;5029194;28;20242;-91
2023/06/14 14:46:33;;;;;;;5.82;3.53;;;22.50;6.30;;;;;;5014338;28;20207;-88
2023/06/14 14:49:00;;;;;;;5.82;3.70;;;22.40;6.50;;;;;;5012358;28;20204;-88
2023/06/14 14:51:28;;;;;;;7.40;3.60;;;22.50;7.00;;;;;;5020210;28;20210;-88
2023/06/14 14:54:03;;;;;;;5.50;3.60;;;22.60;6.00;;;;;;5019578;28;20211;-90
2023/06/14 14:56:57;;;;;;;5.10;3.72;;;22.80;5.90;;;;;;5017596;28;20239;-87
2023/06/14 14:59:24;;;;;;;5.25;3.55;;;23.10;5.50;;;;;;5008899;28;20211;-87
2023/06/14 15:04:34;;;;;;;5.13;3.47;;;23.40;7.00;;;;;;5015648;28;20891;-86
2023/06/14 15:07:01;;;;;;;5.97;3.40;;;23.40;7.10;;;;;;5016405;28;20199;-86
2023/06/14 15:09:27;;;;;;;4.55;3.40;;;23.00;7.20;;;;;;5010095;28;20195;-86
2023/06/14 15:11:55;;;;;;;5.70;3.90;;;23.00;7.70;;;;;;5016310;28;20208;-86
2023/06/14 15:14:22;;;;;;;4.60;3.60;;;23.00;7.00;;;;;;5015974;28;20545;-88
2023/06/14 15:16:49;;;;;;;6.93;3.53;;;23.00;7.60;;;;;;5006793;28;20200;-89
2023/06/14 15:22:06;;;;;;;6.68;3.40;;;23.10;7.50;;;;;;5014160;28;20187;-86
2023/06/14 15:24:33;;;;;;;7.65;3.90;;;23.10;8.20;;;;;;5012557;28;20223;-87
2023/06/14 15:27:00;;;;;;;6.10;3.55;;;23.20;8.10;;;;;;5008297;28;20214;-85
2023/06/14 15:29:27;;;;;;;7.82;3.63;;;23.30;7.40;;;;;;5000596;28;20200;-85
2023/06/14 15:31:57;;;;;;;3.65;3.22;;;23.30;7.20;;;;;;5011447;28;20564;-87
2023/06/14 15:34:27;;;;;;;4.60;3.50;;;23.30;6.80;;;;;;5009917;28;20203;-86
2023/06/14 15:37:02;;;;;;;7.63;3.58;;;23.30;6.90;;;;;;4999679;28;20285;-87
2023/06/14 15:39:31;;;;;;;9.45;3.40;;;23.20;6.70;;;;;;5012509;28;20270;-87
2023/06/14 15:42:00;;;;;;;4.90;3.72;;;23.20;6.90;;;;;;5006496;28;20203;-87
2023/06/14 15:44:27;;;;;;;4.65;3.53;;;23.20;8.10;;;;;;5020629;28;20580;-85
2023/06/14 15:46:54;;;;;;;4.13;3.58;;;23.20;7.60;;;;;;5009133;28;20204;-88
2023/06/14 15:52:11;;;;;;;5.53;3.33;;;23.00;8.80;;;;;;5009995;28;20564;-87
2023/06/14 15:54:39;;;;;;;6.68;3.65;;;23.00;9.10;;;;;;5003920;28;20257;-89
2023/06/14 15:57:06;;;;;;;8.32;3.75;;;22.90;9.10;;;;;;5006125;28;20203;-88
2023/06/14 15:59:33;;;;;;;6.30;3.75;;;22.90;9.70;;;;;;5006861;28;20203;-86
2023/06/14 16:02:01;;;;;;;6.43;3.83;;;22.90;9.20;;;;;;5005279;28;20546;-86
2023/06/14 16:04:29;;;;;;;8.65;3.90;;;22.80;10.30;;;;;;5003869;28;20594;-86
2023/06/14 16:06:56;;;;;;;6.82;3.70;;;22.80;9.60;;;;;;5006172;28;20199;-85
2023/06/14 16:09:24;;;;;;;5.43;3.25;;;22.80;10.10;;;;;;5001840;28;20656;-84
2023/06/14 16:11:53;;;;;;;6.18;3.30;;;22.70;10.70;;;;;;5004302;28;20997;-85
2023/06/14 16:14:20;;;;;;;6.10;3.42;;;22.60;10.20;;;;;;4999920;28;20203;-83
2023/06/14 16:16:47;;;;;;;5.40;3.60;;;22.60;9.90;;;;;;5006415;28;20203;-85
2023/06/14 16:19:14;;;;;;;4.68;3.40;;;22.60;11.00;;;;;;5004119;28;20234;-85
2023/06/14 16:21:41;;;;;;;6.00;3.95;;;22.50;10.40;;;;;;5006709;28;21477;-84
2023/06/14 16:24:09;;;;;;;7.43;3.75;;;22.50;9.80;;;;;;5001004;28;20219;-88
2023/06/14 16:26:37;;;;;;;8.43;3.92;;;22.50;10.50;;;;;;5001541;28;20204;-87
2023/06/14 16:29:04;;;;;;;4.93;3.60;;;22.50;10.10;;;;;;5004112;28;20195;-86
2023/06/14 16:31:31;;;;;;;8.07;3.70;;;22.50;10.30;;;;;;5002771;28;20199;-90
2023/06/14 16:33:58;;;;;;;5.38;3.90;;;22.50;10.30;;;;;;5001139;28;20204;-90
2023/06/14 16:36:25;;;;;;;5.78;3.40;;;22.30;10.70;;;;;;4983323;28;20203;-88
2023/06/14 16:39:01;;;;;;;5.80;3.45;;;22.30;10.30;;;;;;5017530;28;20221;-91
2023/06/14 16:41:29;;;;;;;5.50;3.50;;;22.30;11.00;;;;;;5023668;28;20202;-89
2023/06/14 16:43:57;;;;;;;4.85;3.55;;;22.20;10.30;;;;;;5012865;28;20309;-88
2023/06/14 16:46:29;;;;;;;6.18;3.33;;;22.20;10.90;;;;;;5013595;28;20199;-88
2023/06/14 16:48:56;;;;;;;5.43;3.70;;;22.20;11.00;;;;;;5005388;28;20206;-90
2023/06/14 16:51:23;;;;;;;3.92;3.38;;;22.10;11.00;;;;;;5009828;28;20207;-88
2023/06/14 16:53:51;;;;;;;4.60;3.28;;;22.20;11.70;;;;;;5013695;28;20655;-89
2023/06/14 16:56:18;;;;;;;6.55;3.90;;;22.10;10.30;;;;;;5009123;28;20204;-87
2023/06/14 16:58:46;;;;;;;3.90;3.28;;;22.10;10.40;;;;;;5011499;28;20251;-88
2023/06/14 17:01:15;;;;;;;8.80;3.80;;;22.00;10.60;;;;;;5005568;28;20199;-88
2023/06/14 17:03:42;;;;;;;6.32;3.70;;;21.90;12.20;;;;;;4989941;28;20224;-89
2023/06/14 17:06:09;;;;;;;7.15;3.55;;;21.90;11.30;;;;;;5019730;28;20199;-86
2023/06/14 17:08:36;;;;;;;9.13;3.80;;;21.90;12.20;;;;;;5003502;28;20434;-91
2023/06/14 17:11:03;;;;;;;3.65;3.35;;;21.80;11.00;;;;;;5005204;28;20207;-86
2023/06/14 17:13:30;;;;;;;5.13;3.40;;;21.70;11.50;;;;;;5003671;28;20256;-87
2023/06/14 17:15:57;;;;;;;5.78;3.65;;;21.70;11.40;;;;;;5005821;28;20203;-89
2023/06/14 17:18:26;;;;;;;6.43;3.10;;;21.70;12.20;;;;;;5010303;28;20242;-89
2023/06/14 17:20:53;;;;;;;5.47;3.42;;;21.60;12.00;;;;;;5007079;28;20200;-88
2023/06/14 17:23:20;;;;;;;6.75;4.35;;;21.50;11.90;;;;;;5027720;28;20679;-86
2023/06/14 17:25:47;;;;;;;5.22;3.45;;;21.40;11.90;;;;;;5018160;28;20733;-87
2023/06/14 17:28:14;;;;;;;4.75;3.88;;;21.40;11.90;;;;;;5018382;28;20192;-87
2023/06/14 17:30:43;;;;;;;4.90;3.95;;;21.40;11.90;;;;;;5016320;28;20222;-86
2023/06/14 17:36:29;;;;;;;9.90;3.63;;;21.20;11.70;;;;;;4998437;28;20319;-87
2023/06/14 17:38:56;;;;;;;8.32;3.85;;;21.10;11.70;;;;;;5007635;28;20211;-84
2023/06/14 17:41:23;;;;;;;4.88;3.85;;;21.20;11.80;;;;;;5007788;28;20207;-84
2023/06/14 17:43:51;;;;;;;5.32;4.15;;;21.20;11.80;;;;;;5003511;28;20229;-86
2023/06/14 17:46:18;;;;;;;8.65;3.78;;;21.00;11.60;;;;;;5005853;28;20620;-85
2023/06/14 17:48:45;;;;;;;4.60;4.20;;;21.00;12.40;;;;;;5008359;28;20228;-85
2023/06/14 17:51:15;;;;;;;6.30;3.72;;;20.90;12.00;;;;;;5009870;28;20210;-89
2023/06/14 17:53:44;;;;;;;7.38;4.00;;;20.90;12.20;;;;;;5006424;28;20220;-85
2023/06/14 17:56:12;;;;;;;4.93;3.70;;;20.80;12.30;;;;;;5006802;28;20207;-84
2023/06/14 17:58:39;;;;;;;7.10;3.58;;;20.80;12.20;;;;;;5003120;28;20217;-89
2023/06/14 18:01:06;;;;;;;5.13;3.50;;;20.80;12.20;;;;;;5012702;28;20194;-86
2023/06/14 18:03:33;;;;;;;8.82;3.90;;;20.70;13.00;;;;;;5003828;28;20213;-84
2023/06/14 18:06:00;;;;;;;7.82;3.72;;;20.70;13.10;;;;;;5012275;28;20257;-86
2023/06/14 18:08:27;;;;;;;8.02;3.83;;;20.60;13.50;;;;;;5011833;28;20207;-86
2023/06/14 18:10:55;;;;;;;6.03;3.80;;;20.50;14.20;;;;;;5004103;28;20305;-84
2023/06/14 18:13:22;;;;;;;6.97;3.40;;;20.50;13.80;;;;;;5006946;28;20203;-87
2023/06/14 18:15:49;;;;;;;7.63;3.85;;;20.40;14.10;;;;;;5010774;28;20667;-90
2023/06/14 18:18:16;;;;;;;9.27;3.75;;;20.40;14.20;;;;;;5005831;28;20593;-84
2023/06/14 18:20:43;;;;;;;4.68;4.10;;;20.30;14.60;;;;;;5010421;28;20203;-85
2023/06/14 18:23:10;;;;;;;8.45;3.75;;;20.30;14.70;;;;;;5007039;28;20294;-86
2023/06/14 18:25:37;;;;;;;8.32;3.58;;;20.20;14.80;;;;;;5004967;28;20857;-86
2023/06/14 18:28:06;;;;;;;5.40;3.72;;;20.10;15.40;;;;;;5007148;28;20633;-84
2023/06/14 18:30:32;;;;;;;11.77;4.10;;;20.00;15.10;;;;;;5007252;28;20200;-87
2023/06/14 18:32:59;;;;;;;5.10;4.30;;;19.90;15.40;;;;;;5005508;28;20664;-83
2023/06/14 18:35:27;;;;;;;6.07;3.88;;;19.80;15.50;;;;;;5005196;28;20207;-89
2023/06/14 18:37:53;;;;;;;8.75;4.65;;;19.80;15.70;;;;;;5002794;28;20719;-88
2023/06/14 18:40:21;;;;;;;7.53;3.85;;;19.80;15.50;;;;;;5002053;28;20206;-87
2023/06/14 18:42:48;;;;;;;7.30;3.40;;;19.70;16.50;;;;;;5000796;28;20246;-87
2023/06/14 18:45:17;;;;;;;5.00;3.55;;;19.60;15.80;;;;;;5010164;28;20560;-84
2023/06/14 18:47:44;;;;;;;7.55;3.80;;;19.60;15.70;;;;;;5007915;28;20651;-85
2023/06/14 18:50:11;;;;;;;6.50;3.65;;;19.50;16.10;;;;;;5012974;28;20540;-86
2023/06/14 18:52:38;;;;;;;4.18;3.72;;;19.40;16.40;;;;;;5013189;28;20578;-89
2023/06/14 18:55:06;;;;;;;6.32;3.83;;;19.40;16.90;;;;;;5013032;28;20199;-86
2023/06/14 18:57:33;;;;;;;11.57;4.40;;;19.20;16.80;;;;;;5015975;28;20199;-83
2023/06/14 19:00:00;;;;;;;10.18;4.35;;;19.20;17.20;;;;;;5010530;28;20200;-87
2023/06/14 19:02:28;;;;;;;10.32;3.95;;;19.10;17.90;;;;;;5005654;28;20208;-87
2023/06/14 19:04:55;;;;;;;5.72;4.00;;;19.10;17.70;;;;;;5007508;28;20222;-88
2023/06/14 19:07:22;;;;;;;5.50;3.70;;;19.00;17.40;;;;;;5006391;28;20202;-87
2023/06/14 19:09:49;;;;;;;6.30;3.75;;;19.00;17.80;;;;;;4992505;28;20530;-86
2023/06/14 19:12:16;;;;;;;7.70;3.92;;;18.90;18.00;;;;;;5002504;28;20595;-89
2023/06/14 19:14:43;;;;;;;5.20;3.58;;;18.80;18.10;;;;;;5005530;28;20206;-85
2023/06/14 19:17:10;;;;;;;5.53;3.70;;;18.80;18.00;;;;;;5007727;28;20199;-89
2023/06/14 19:19:38;;;;;;;6.53;4.07;;;18.80;18.10;;;;;;5010609;28;20293;-87
2023/06/14 19:22:06;;;;;;;4.30;3.42;;;18.70;18.70;;;;;;5010603;28;20646;-86
2023/06/14 19:24:33;;;;;;;6.35;4.18;;;18.70;18.60;;;;;;5008477;28;20227;-89
2023/06/14 19:27:00;;;;;;;8.63;4.10;;;18.70;18.40;;;;;;4996062;28;20248;-88
2023/06/14 19:29:29;;;;;;;6.07;3.88;;;18.60;18.70;;;;;;5009802;28;20200;-91
2023/06/14 19:32:00;;;;;;;7.68;4.85;;;18.50;19.30;;;;;;5004356;28;20265;-90
2023/06/14 19:34:27;;;;;;;7.05;3.92;;;18.50;19.30;;;;;;5011066;28;20218;-85
2023/06/14 19:36:55;;;;;;;6.45;3.83;;;18.40;19.30;;;;;;5008435;28;20298;-88
2023/06/14 19:39:22;;;;;;;8.90;4.35;;;18.40;19.30;;;;;;5012399;28;20262;-90
2023/06/14 19:41:50;;;;;;;5.95;4.50;;;18.40;19.50;;;;;;5011037;28;20194;-90
2023/06/14 19:44:17;;;;;;;6.95;4.07;;;18.30;19.90;;;;;;5010471;28;20207;-87
2023/06/14 19:46:44;;;;;;;9.13;4.53;;;18.30;19.80;;;;;;5017309;28;20596;-88
2023/06/14 19:49:11;;;;;;;9.10;3.97;;;18.20;19.90;;;;;;5011536;28;20195;-89
2023/06/14 19:51:38;;;;;;;5.85;3.65;;;18.20;20.00;;;;;;5018327;28;20209;-89
2023/06/14 19:54:07;;;;;;;8.45;3.70;;;18.20;20.10;;;;;;5011834;28;20199;-88
2023/06/14 19:56:34;;;;;;;7.13;3.80;;;18.10;21.20;;;;;;5014785;28;20287;-86
2023/06/14 19:59:01;;;;;;;9.48;3.83;;;18.10;20.30;;;;;;5014714;28;20286;-88
2023/06/14 20:01:28;;;;;;;8.95;3.90;;;18.10;20.60;;;;;;5012592;28;20210;-90
2023/06/14 20:03:55;;;;;;;6.57;3.60;;;18.00;20.60;;;;;;5013600;28;20209;-87
2023/06/14 20:06:22;;;;;;;6.75;4.18;;;17.90;22.00;;;;;;5012721;28;20223;-89
2023/06/14 20:08:49;;;;;;;5.53;4.40;;;17.90;22.00;;;;;;5013605;28;20212;-88
2023/06/14 20:11:18;;;;;;;6.35;4.53;;;17.80;21.80;;;;;;5019329;28;20602;-89
2023/06/14 20:13:45;;;;;;;5.90;3.75;;;17.80;21.70;;;;;;5016879;28;20286;-85
2023/06/14 20:16:12;;;;;;;9.60;3.80;;;17.70;22.00;;;;;;5013967;28;20548;-87
2023/06/14 20:18:40;;;;;;;7.63;3.95;;;17.70;21.50;;;;;;5008500;28;20688;-87
2023/06/14 20:21:07;;;;;;;5.22;4.00;;;17.60;21.90;;;;;;5013192;28;20222;-86
2023/06/14 20:23:34;;;;;;;7.95;4.30;;;17.60;22.50;;;;;;5013641;28;20206;-84
2023/06/14 20:26:01;;;;;;;6.57;4.60;;;17.60;22.50;;;;;;5006336;28;20227;-88
2023/06/14 20:28:30;;;;;;;8.80;4.22;;;17.60;22.90;;;;;;5012312;28;20198;-86
2023/06/14 20:30:58;;;;;;;8.68;4.20;;;17.50;23.20;;;;;;5015588;28;20201;-87
2023/06/14 20:33:24;;;;;;;7.13;3.92;;;17.50;23.10;;;;;;5011613;28;20211;-88
2023/06/14 20:35:51;;;;;;;6.68;4.10;;;17.50;23.70;;;;;;5019351;28;20225;-86
2023/06/14 20:38:18;;;;;;;7.70;4.20;;;17.50;23.30;;;;;;5018715;28;20732;-88
2023/06/14 20:40:48;;;;;;;8.77;3.88;;;17.50;23.50;;;;;;5016412;28;20203;-87
2023/06/14 20:43:15;;;;;;;10.00;4.05;;;17.40;23.30;;;;;;5011838;28;20203;-84
2023/06/14 20:45:44;;;;;;;4.07;3.67;;;17.40;23.30;;;;;;5014120;28;20582;-84
2023/06/14 20:48:11;;;;;;;7.93;4.35;;;17.40;22.90;;;;;;5012089;28;20203;-87
2023/06/14 20:50:38;;;;;;;10.57;4.15;;;17.40;23.20;;;;;;5011049;28;20208;-87
2023/06/14 20:53:05;;;;;;;6.05;3.63;;;17.30;22.60;;;;;;5012619;28;20250;-88
2023/06/14 20:55:32;;;;;;;11.48;9.23;;;17.30;22.90;;;;;;5011663;28;20218;-87
2023/06/14 20:57:59;;;;;;;8.57;4.22;;;17.30;23.50;;;;;;5013855;28;20196;-88
2023/06/14 21:00:26;;;;;;;6.28;3.72;;;17.30;23.30;;;;;;5021241;28;20203;-86
2023/06/14 21:02:56;;;;;;;6.70;4.90;;;17.30;23.10;;;;;;5018102;28;20203;-87
2023/06/14 21:05:23;;;;;;;8.70;4.05;;;17.30;23.80;;;;;;5013264;28;20223;-86
2023/06/14 21:07:50;;;;;;;7.20;3.75;;;17.20;23.50;;;;;;5011213;28;20207;-87
2023/06/14 21:10:17;;;;;;;5.93;4.03;;;17.10;23.80;;;;;;5011348;28;20203;-86
2023/06/14 21:12:44;;;;;;;5.35;3.90;;;17.10;25.40;;;;;;5015691;28;20209;-84
2023/06/14 21:15:11;;;;;;;5.90;3.60;;;17.10;23.80;;;;;;5016183;28;20200;-87
2023/06/14 21:17:38;;;;;;;5.13;4.20;;;17.10;25.30;;;;;;5013324;28;20241;-85
2023/06/14 21:20:09;;;;;;;4.63;3.58;;;17.10;25.10;;;;;;5021465;28;20206;-87
2023/06/14 21:22:37;;;;;;;5.75;3.85;;;17.00;24.50;;;;;;5018137;28;20228;-88
2023/06/14 21:25:05;;;;;;;6.88;3.83;;;17.00;24.60;;;;;;5020081;28;20333;-85
2023/06/14 21:27:32;;;;;;;4.53;3.88;;;17.00;24.10;;;;;;5014835;28;20195;-87
2023/06/14 21:30:01;;;;;;;4.50;3.83;;;17.00;24.10;;;;;;5017025;28;20663;-86
2023/06/14 21:32:28;;;;;;;6.72;3.90;;;17.00;24.10;;;;;;5006182;28;20301;-86
2023/06/14 21:34:55;;;;;;;8.60;4.13;;;17.00;24.30;;;;;;5012811;28;20191;-87
2023/06/14 21:37:23;;;;;;;6.25;3.53;;;17.00;25.60;;;;;;5009925;28;20203;-87
2023/06/14 21:39:50;;;;;;;6.35;4.10;;;17.00;24.20;;;;;;5005667;28;20199;-88
2023/06/14 21:42:17;;;;;;;7.50;4.07;;;17.00;24.20;;;;;;5006200;28;20200;-84
2023/06/14 21:44:45;;;;;;;7.88;6.75;;;17.00;24.20;;;;;;5009725;28;20617;-87
2023/06/14 21:47:13;;;;;;;7.00;3.95;;;17.00;25.80;;;;;;5019401;28;20314;-86
2023/06/14 21:49:41;;;;;;;5.32;4.03;;;17.10;26.40;;;;;;5007920;28;20200;-88
2023/06/14 21:52:09;;;;;;;10.85;4.53;;;17.00;25.00;;;;;;5022290;28;20215;-84
2023/06/14 21:54:37;;;;;;;4.18;3.65;;;17.00;25.80;;;;;;5014563;28;20199;-89
2023/06/14 21:57:05;;;;;;;9.27;3.67;;;17.00;25.50;;;;;;5017602;28;20656;-88
2023/06/14 21:59:32;;;;;;;9.13;4.00;;;16.90;25.90;;;;;;5028303;28;20218;-87
2023/06/14 22:01:59;;;;;;;6.78;4.10;;;16.90;25.90;;;;;;5012744;28;20579;-88
2023/06/14 22:04:26;;;;;;;7.03;3.92;;;16.90;26.10;;;;;;5014471;28;20623;-88